Time;durP1;ratioP1;P1;durP2;ratioP2;P2;SDS_P1;SDS_P2;PMS_P1;PMS_P2;Temp;Humidity;BMP_temperature;BMP_pressure;BME280_temperature;BME280_humidity;BME280_pressure;Samples;Min_cycle;Max_cycle;Signal;HPM_P1;HPM_P2
2023/09/13 00:00:49;;;;;;;3.30;3.20;;;;;;;;;;4986973;28;20319;-62
2023/09/13 00:03:16;;;;;;;4.63;3.05;;;;;;;;;;4987125;28;20212;-62
2023/09/13 00:05:46;;;;;;;3.70;3.50;;;;;;;;;;4988952;28;20210;-62
2023/09/13 00:08:13;;;;;;;5.15;3.53;;;;;;;;;;4986733;28;20756;-61
2023/09/13 00:10:40;;;;;;;4.20;3.78;;;;;;;;;;4986357;28;20233;-62
2023/09/13 00:13:07;;;;;;;3.50;3.30;;;;;;;;;;4987921;28;20212;-62
2023/09/13 00:15:34;;;;;;;7.75;3.90;;;;;;;;;;4987890;28;20221;-62
2023/09/13 00:18:02;;;;;;;3.75;3.55;;;;;;;;;;4979152;28;20210;-62
2023/09/13 00:20:29;;;;;;;3.72;3.53;;;;;;;;;;4982929;28;20288;-62
2023/09/13 00:22:56;;;;;;;4.05;3.70;;;;;;;;;;4984639;28;20225;-62
2023/09/13 00:25:24;;;;;;;4.20;3.50;;;;;;;;;;4982799;28;20217;-62
2023/09/13 00:27:51;;;;;;;4.55;3.35;;;;;;;;;;4982603;28;20230;-62
2023/09/13 00:30:18;;;;;;;4.18;3.40;;;;;;;;;;4982874;28;20322;-62
2023/09/13 00:32:45;;;;;;;3.42;3.28;;;;;;;;;;4982434;28;20202;-63
2023/09/13 00:35:13;;;;;;;5.88;3.97;;;;;;;;;;4982676;28;20233;-62
2023/09/13 00:37:40;;;;;;;3.78;3.47;;;;;;;;;;4988447;28;20216;-62
2023/09/13 00:40:08;;;;;;;5.97;3.75;;;;;;;;;;4986111;28;20209;-62
2023/09/13 00:42:35;;;;;;;4.10;3.40;;;;;;;;;;4987951;28;20236;-62
2023/09/13 00:45:02;;;;;;;3.85;3.65;;;;;;;;;;4987046;28;20244;-62
2023/09/13 00:47:29;;;;;;;5.88;3.45;;;;;;;;;;4977276;28;20206;-62
2023/09/13 00:49:57;;;;;;;5.97;3.75;;;;;;;;;;4986990;28;20214;-62
2023/09/13 00:52:26;;;;;;;4.00;3.75;;;;;;;;;;4986177;28;20218;-62
2023/09/13 00:54:54;;;;;;;6.05;4.13;;;;;;;;;;4987288;28;20209;-62
2023/09/13 00:57:21;;;;;;;4.00;3.80;;;;;;;;;;4983418;28;20249;-62
2023/09/13 00:59:48;;;;;;;4.70;3.80;;;;;;;;;;4980068;28;20221;-62
2023/09/13 01:02:15;;;;;;;4.65;4.25;;;;;;;;;;4985014;28;20706;-62
2023/09/13 01:04:43;;;;;;;4.57;4.20;;;;;;;;;;4986761;28;20213;-61
2023/09/13 01:07:10;;;;;;;5.90;4.80;;;;;;;;;;4985892;28;20222;-62
2023/09/13 01:09:39;;;;;;;7.30;4.82;;;;;;;;;;4988000;28;20229;-62
2023/09/13 01:12:06;;;;;;;4.68;4.43;;;;;;;;;;4988024;28;20210;-62
2023/09/13 01:14:34;;;;;;;4.97;4.63;;;;;;;;;;4983051;28;20584;-62
2023/09/13 01:17:04;;;;;;;6.03;4.53;;;;;;;;;;4983181;28;20233;-62
2023/09/13 01:19:43;;;;;;;4.13;3.92;;;;;;;;;;4980797;28;20309;-62
2023/09/13 01:22:20;;;;;;;4.90;4.50;;;;;;;;;;4983432;28;20593;-61
2023/09/13 01:24:59;;;;;;;4.70;3.88;;;;;;;;;;4986304;28;20205;-63
2023/09/13 01:27:37;;;;;;;4.40;4.10;;;;;;;;;;4985642;28;20210;-63
2023/09/13 01:30:06;;;;;;;4.55;4.25;;;;;;;;;;4988194;28;20624;-64
2023/09/13 01:32:35;;;;;;;4.30;3.80;;;;;;;;;;4988268;28;20308;-64
2023/09/13 01:35:02;;;;;;;4.47;4.00;;;;;;;;;;4986040;28;20629;-64
2023/09/13 01:37:30;;;;;;;4.00;3.63;;;;;;;;;;4982697;28;20209;-64
2023/09/13 01:39:57;;;;;;;4.28;3.38;;;;;;;;;;4982265;28;20206;-64
2023/09/13 01:42:25;;;;;;;3.20;3.10;;;;;;;;;;4985976;28;20229;-63
2023/09/13 01:44:52;;;;;;;4.05;3.70;;;;;;;;;;4987268;28;20210;-62
2023/09/13 01:47:21;;;;;;;3.72;3.50;;;;;;;;;;4985650;28;20202;-63
2023/09/13 01:49:49;;;;;;;3.13;3.00;;;;;;;;;;4987463;28;20208;-63
2023/09/13 01:52:16;;;;;;;3.40;3.20;;;;;;;;;;4985133;28;20213;-62
2023/09/13 01:54:43;;;;;;;3.42;3.13;;;;;;;;;;4986057;28;20205;-63
2023/09/13 01:57:10;;;;;;;3.17;2.97;;;;;;;;;;4985004;28;20256;-62
2023/09/13 01:59:37;;;;;;;3.47;3.17;;;;;;;;;;4986754;28;20212;-63
2023/09/13 02:02:04;;;;;;;3.17;3.00;;;;;;;;;;4987333;28;20217;-62
2023/09/13 02:04:33;;;;;;;3.08;2.85;;;;;;;;;;4983437;28;20221;-63
2023/09/13 02:07:01;;;;;;;4.28;2.80;;;;;;;;;;4982582;28;20299;-63
2023/09/13 02:09:28;;;;;;;2.90;2.70;;;;;;;;;;4980703;28;20257;-63
2023/09/13 02:11:55;;;;;;;3.13;2.88;;;;;;;;;;4987126;28;20218;-63
2023/09/13 02:14:22;;;;;;;2.42;2.33;;;;;;;;;;4984456;28;20213;-63
2023/09/13 02:16:49;;;;;;;2.72;2.60;;;;;;;;;;4984640;28;20232;-62
2023/09/13 02:19:17;;;;;;;2.60;2.50;;;;;;;;;;4982763;28;20206;-62
2023/09/13 02:21:45;;;;;;;2.35;2.20;;;;;;;;;;4986009;28;20213;-62
2023/09/13 02:24:12;;;;;;;2.50;2.40;;;;;;;;;;4982743;28;20206;-62
2023/09/13 02:26:40;;;;;;;2.50;2.40;;;;;;;;;;4981237;28;20197;-62
2023/09/13 02:29:07;;;;;;;2.85;2.65;;;;;;;;;;4982631;28;20623;-64
2023/09/13 02:31:34;;;;;;;2.42;2.33;;;;;;;;;;4983424;28;20206;-62
2023/09/13 02:34:01;;;;;;;4.10;2.25;;;;;;;;;;4974213;28;20210;-62
2023/09/13 02:36:28;;;;;;;6.30;2.17;;;;;;;;;;4985825;28;20217;-62
2023/09/13 02:38:56;;;;;;;2.35;2.25;;;;;;;;;;4984701;28;20213;-62
2023/09/13 02:41:23;;;;;;;3.13;2.28;;;;;;;;;;4986585;28;20210;-62
2023/09/13 02:43:51;;;;;;;3.10;2.30;;;;;;;;;;4986312;28;20218;-63
2023/09/13 02:46:18;;;;;;;2.10;2.10;;;;;;;;;;4984771;28;20656;-62
2023/09/13 02:48:45;;;;;;;2.53;2.42;;;;;;;;;;4986534;28;20209;-62
2023/09/13 02:51:13;;;;;;;1.98;1.98;;;;;;;;;;4984801;28;20300;-62
2023/09/13 02:53:40;;;;;;;2.35;2.25;;;;;;;;;;4986410;28;20201;-62
2023/09/13 02:56:09;;;;;;;2.53;2.33;;;;;;;;;;4985695;28;20230;-62
2023/09/13 02:58:37;;;;;;;3.08;2.30;;;;;;;;;;4986241;28;20205;-62
2023/09/13 03:01:04;;;;;;;3.35;2.38;;;;;;;;;;4984762;28;20214;-62
2023/09/13 03:03:32;;;;;;;2.20;2.10;;;;;;;;;;4980218;28;20216;-62
2023/09/13 03:06:07;;;;;;;2.30;2.20;;;;;;;;;;4983843;28;20201;-62
2023/09/13 03:08:34;;;;;;;2.20;2.08;;;;;;;;;;4984547;28;20258;-63
2023/09/13 03:11:10;;;;;;;1.98;1.88;;;;;;;;;;4980288;28;20214;-63
2023/09/13 03:13:37;;;;;;;2.17;2.08;;;;;;;;;;4986336;28;20213;-62
2023/09/13 03:16:11;;;;;;;1.90;1.90;;;;;;;;;;4984798;28;20260;-63
2023/09/13 03:18:38;;;;;;;3.42;2.13;;;;;;;;;;4982193;28;20206;-62
2023/09/13 03:21:07;;;;;;;2.40;2.25;;;;;;;;;;4979282;28;20236;-62
2023/09/13 03:23:34;;;;;;;2.28;2.15;;;;;;;;;;4990002;28;20209;-63
2023/09/13 03:26:01;;;;;;;2.55;2.28;;;;;;;;;;4988602;28;20205;-63
2023/09/13 03:28:29;;;;;;;2.58;1.58;;;;;;;;;;4989718;28;20209;-62
2023/09/13 03:30:56;;;;;;;2.15;1.95;;;;;;;;;;4989701;28;20209;-62
2023/09/13 03:33:23;;;;;;;2.13;2.10;;;;;;;;;;4987370;28;20209;-62
2023/09/13 03:35:53;;;;;;;3.42;1.92;;;;;;;;;;4989756;28;20569;-63
2023/09/13 03:38:20;;;;;;;2.03;1.92;;;;;;;;;;4987977;28;20956;-63
2023/09/13 03:40:48;;;;;;;1.98;1.90;;;;;;;;;;4989795;28;20206;-61
2023/09/13 03:43:15;;;;;;;2.00;1.95;;;;;;;;;;4987487;28;20209;-61
2023/09/13 03:45:43;;;;;;;1.85;1.85;;;;;;;;;;4985930;28;20252;-61
2023/09/13 03:48:10;;;;;;;2.10;2.00;;;;;;;;;;4983624;28;20216;-61
2023/09/13 03:50:38;;;;;;;4.22;2.30;;;;;;;;;;4985917;28;20730;-62
2023/09/13 03:53:05;;;;;;;3.38;2.13;;;;;;;;;;4984211;28;20212;-61
2023/09/13 03:55:33;;;;;;;2.05;2.00;;;;;;;;;;4983189;28;20213;-62
2023/09/13 03:58:00;;;;;;;2.10;1.73;;;;;;;;;;4987203;28;20225;-61
2023/09/13 04:00:27;;;;;;;1.73;1.67;;;;;;;;;;4989047;28;20209;-61
2023/09/13 04:02:55;;;;;;;1.83;1.83;;;;;;;;;;4989111;28;20213;-62
2023/09/13 04:05:23;;;;;;;2.13;1.92;;;;;;;;;;4980481;28;20206;-61
2023/09/13 04:07:50;;;;;;;2.00;1.90;;;;;;;;;;4989134;28;20229;-61
2023/09/13 04:10:17;;;;;;;3.40;1.95;;;;;;;;;;4986501;28;20257;-62
2023/09/13 04:12:44;;;;;;;2.08;1.90;;;;;;;;;;4989322;28;20213;-62
2023/09/13 04:15:11;;;;;;;4.90;2.20;;;;;;;;;;4986766;28;20202;-61
2023/09/13 04:17:38;;;;;;;3.20;2.15;;;;;;;;;;4989085;28;20225;-61
2023/09/13 04:20:08;;;;;;;2.22;2.10;;;;;;;;;;4988828;28;20214;-62
2023/09/13 04:22:35;;;;;;;2.47;2.25;;;;;;;;;;4975128;28;20206;-61
2023/09/13 04:25:02;;;;;;;1.95;1.95;;;;;;;;;;4985012;28;20232;-62
2023/09/13 04:27:29;;;;;;;1.83;1.80;;;;;;;;;;4983563;28;20593;-61
2023/09/13 04:29:56;;;;;;;1.80;1.80;;;;;;;;;;4982108;28;20221;-62
2023/09/13 04:32:23;;;;;;;2.25;2.10;;;;;;;;;;4983357;28;20213;-63
2023/09/13 04:34:51;;;;;;;3.10;2.00;;;;;;;;;;4982557;28;20218;-62
2023/09/13 04:37:19;;;;;;;2.13;2.03;;;;;;;;;;4988354;28;20225;-62
2023/09/13 04:39:46;;;;;;;2.00;1.90;;;;;;;;;;4988829;28;20201;-61
2023/09/13 04:42:14;;;;;;;3.03;2.10;;;;;;;;;;4985759;28;20677;-62
2023/09/13 04:44:40;;;;;;;3.70;1.90;;;;;;;;;;4988308;28;20444;-62
2023/09/13 04:47:08;;;;;;;2.00;1.90;;;;;;;;;;4987051;28;20209;-62
2023/09/13 04:49:36;;;;;;;2.03;1.95;;;;;;;;;;4988727;28;20206;-59
2023/09/13 04:52:03;;;;;;;2.55;2.35;;;;;;;;;;4987205;28;20627;-59
2023/09/13 04:54:31;;;;;;;2.70;2.50;;;;;;;;;;4986683;28;20236;-61
2023/09/13 04:56:58;;;;;;;2.63;2.42;;;;;;;;;;4988076;28;20704;-62
2023/09/13 04:59:26;;;;;;;2.60;2.10;;;;;;;;;;4985760;28;20206;-62
2023/09/13 05:01:53;;;;;;;2.17;2.17;;;;;;;;;;4988834;28;20224;-62
2023/09/13 05:04:20;;;;;;;2.33;2.22;;;;;;;;;;4982825;28;20886;-62
2023/09/13 05:06:47;;;;;;;2.25;2.10;;;;;;;;;;4983014;28;20214;-61
2023/09/13 05:09:14;;;;;;;2.13;2.03;;;;;;;;;;4983175;28;20249;-62
2023/09/13 05:11:42;;;;;;;2.90;2.60;;;;;;;;;;4983437;28;20222;-62
2023/09/13 05:14:11;;;;;;;2.42;2.22;;;;;;;;;;4981830;28;20205;-62
2023/09/13 05:16:38;;;;;;;2.28;2.00;;;;;;;;;;4972839;28;20222;-62
2023/09/13 05:19:05;;;;;;;2.65;2.45;;;;;;;;;;4966503;28;20217;-62
2023/09/13 05:21:32;;;;;;;2.40;2.35;;;;;;;;;;4986200;28;20710;-62
2023/09/13 05:23:59;;;;;;;2.40;2.25;;;;;;;;;;4987994;28;20692;-62
2023/09/13 05:26:26;;;;;;;2.47;2.25;;;;;;;;;;4976399;28;20433;-62
2023/09/13 05:28:54;;;;;;;2.45;2.10;;;;;;;;;;4969052;28;20211;-62
2023/09/13 05:31:21;;;;;;;2.33;2.13;;;;;;;;;;4972382;28;20212;-62
2023/09/13 05:33:48;;;;;;;2.10;2.10;;;;;;;;;;4988342;28;20726;-62
2023/09/13 05:36:16;;;;;;;2.30;2.10;;;;;;;;;;4985506;28;20268;-62
2023/09/13 05:38:43;;;;;;;3.00;2.17;;;;;;;;;;4984569;28;20253;-62
2023/09/13 05:41:10;;;;;;;2.50;2.30;;;;;;;;;;4982769;28;20213;-62
2023/09/13 05:43:37;;;;;;;2.15;2.13;;;;;;;;;;4981643;28;20214;-63
2023/09/13 05:46:06;;;;;;;2.67;2.58;;;;;;;;;;4980414;28;20559;-63
2023/09/13 05:48:33;;;;;;;2.30;2.10;;;;;;;;;;4986489;28;20577;-62
2023/09/13 05:51:00;;;;;;;4.32;2.17;;;;;;;;;;4985455;28;20676;-63
2023/09/13 05:53:27;;;;;;;2.13;2.08;;;;;;;;;;4987641;28;20225;-63
2023/09/13 05:55:54;;;;;;;2.42;2.33;;;;;;;;;;4986332;28;20235;-62
2023/09/13 05:58:21;;;;;;;2.20;2.10;;;;;;;;;;4983786;28;21109;-63
2023/09/13 06:00:49;;;;;;;2.10;2.00;;;;;;;;;;4982282;28;20221;-62
2023/09/13 06:03:18;;;;;;;2.53;2.38;;;;;;;;;;4979534;28;20202;-62
2023/09/13 06:05:48;;;;;;;2.90;2.13;;;;;;;;;;4985014;28;20213;-62
2023/09/13 06:08:15;;;;;;;2.45;2.35;;;;;;;;;;4984932;28;20221;-63
2023/09/13 06:10:42;;;;;;;2.20;2.17;;;;;;;;;;4986720;28;20336;-62
2023/09/13 06:13:09;;;;;;;4.20;2.70;;;;;;;;;;4986438;28;20601;-62
2023/09/13 06:15:36;;;;;;;2.45;1.85;;;;;;;;;;4985225;28;20217;-63
2023/09/13 06:18:03;;;;;;;2.30;2.20;;;;;;;;;;4985372;28;20229;-60
2023/09/13 06:20:32;;;;;;;2.42;2.33;;;;;;;;;;4981119;28;20587;-63
2023/09/13 06:23:00;;;;;;;2.25;2.15;;;;;;;;;;4982868;28;20210;-62
2023/09/13 06:25:27;;;;;;;2.53;2.42;;;;;;;;;;4981464;28;20233;-62
2023/09/13 06:27:54;;;;;;;2.58;2.40;;;;;;;;;;4987188;28;20209;-62
2023/09/13 06:30:21;;;;;;;2.70;2.50;;;;;;;;;;4985266;28;20213;-62
2023/09/13 06:32:48;;;;;;;2.80;2.60;;;;;;;;;;4987231;28;20304;-62
2023/09/13 06:35:15;;;;;;;3.22;2.20;;;;;;;;;;4985329;28;20206;-62
2023/09/13 06:37:44;;;;;;;2.05;1.95;;;;;;;;;;4986179;28;20229;-62
2023/09/13 06:40:11;;;;;;;2.22;2.15;;;;;;;;;;4981384;28;20233;-62
2023/09/13 06:42:38;;;;;;;2.55;2.35;;;;;;;;;;4983351;28;20302;-62
2023/09/13 06:45:06;;;;;;;2.50;2.30;;;;;;;;;;4984792;28;20259;-63
2023/09/13 06:47:33;;;;;;;2.25;2.17;;;;;;;;;;4984717;28;20194;-62
2023/09/13 06:50:00;;;;;;;2.65;2.53;;;;;;;;;;4985837;28;20217;-62
2023/09/13 06:52:27;;;;;;;3.25;2.53;;;;;;;;;;4985463;28;20222;-62
2023/09/13 06:54:55;;;;;;;2.25;2.20;;;;;;;;;;4986596;28;20210;-62
2023/09/13 06:57:22;;;;;;;2.30;2.30;;;;;;;;;;4984379;28;20228;-63
2023/09/13 06:59:49;;;;;;;2.55;2.45;;;;;;;;;;4984006;28;20566;-63
2023/09/13 07:02:16;;;;;;;2.45;2.22;;;;;;;;;;4966342;28;20205;-63
2023/09/13 07:04:43;;;;;;;2.55;2.40;;;;;;;;;;4980225;28;20213;-63
2023/09/13 07:07:11;;;;;;;2.50;2.30;;;;;;;;;;4980848;28;20233;-62
2023/09/13 07:09:38;;;;;;;2.83;2.72;;;;;;;;;;4986229;28;20347;-63
2023/09/13 07:12:07;;;;;;;2.47;2.30;;;;;;;;;;4985992;28;20212;-63
2023/09/13 07:14:34;;;;;;;2.47;2.38;;;;;;;;;;4986317;28;20210;-63
2023/09/13 07:17:02;;;;;;;3.60;2.75;;;;;;;;;;4983848;28;20232;-62
2023/09/13 07:19:29;;;;;;;3.15;2.53;;;;;;;;;;4980861;28;20964;-63
2023/09/13 07:21:56;;;;;;;3.17;2.92;;;;;;;;;;4982066;28;20217;-65
2023/09/13 07:24:23;;;;;;;2.97;2.88;;;;;;;;;;4980546;28;20209;-63
2023/09/13 07:26:50;;;;;;;3.03;2.90;;;;;;;;;;4983764;28;20205;-67
2023/09/13 07:29:18;;;;;;;4.20;2.90;;;;;;;;;;4987145;28;20295;-65
2023/09/13 07:31:45;;;;;;;3.30;3.10;;;;;;;;;;4985716;28;20210;-65
2023/09/13 07:34:12;;;;;;;2.45;2.42;;;;;;;;;;4984713;28;20221;-65
2023/09/13 07:36:39;;;;;;;3.30;2.83;;;;;;;;;;4985041;28;20205;-65
2023/09/13 07:39:09;;;;;;;3.30;2.90;;;;;;;;;;4981898;28;20226;-65
2023/09/13 07:41:36;;;;;;;5.07;2.92;;;;;;;;;;4982572;28;20237;-65
2023/09/13 07:44:03;;;;;;;6.03;2.90;;;;;;;;;;4982208;28;20206;-67
2023/09/13 07:46:31;;;;;;;3.90;2.95;;;;;;;;;;4985542;28;20563;-71
2023/09/13 07:48:58;;;;;;;2.70;2.60;;;;;;;;;;4986701;28;20212;-71
2023/09/13 07:51:25;;;;;;;2.88;2.67;;;;;;;;;;4985000;28;20202;-73
2023/09/13 07:53:53;;;;;;;3.25;3.05;;;;;;;;;;4987075;28;20206;-75
2023/09/13 07:56:20;;;;;;;3.42;2.80;;;;;;;;;;4983915;28;20206;-73
2023/09/13 07:58:47;;;;;;;3.50;2.85;;;;;;;;;;4984546;28;20222;-73
2023/09/13 08:01:14;;;;;;;3.60;3.10;;;;;;;;;;4983803;28;20201;-75
2023/09/13 08:03:43;;;;;;;2.50;2.30;;;;;;;;;;4986750;28;20217;-73
2023/09/13 08:06:10;;;;;;;2.72;2.60;;;;;;;;;;4985726;28;21006;-71
2023/09/13 08:08:37;;;;;;;3.45;2.97;;;;;;;;;;4970188;28;20334;-69
2023/09/13 08:11:04;;;;;;;2.80;2.60;;;;;;;;;;4980899;28;20214;-71
2023/09/13 08:13:31;;;;;;;2.83;2.72;;;;;;;;;;4988656;28;20322;-62
2023/09/13 08:15:58;;;;;;;4.60;3.30;;;;;;;;;;4986593;28;20210;-62
2023/09/13 08:18:25;;;;;;;5.00;3.20;;;;;;;;;;4974715;28;20222;-63
2023/09/13 08:20:54;;;;;;;3.45;3.15;;;;;;;;;;4972649;28;20210;-64
2023/09/13 08:23:21;;;;;;;5.60;3.00;;;;;;;;;;4981335;28;20297;-64
2023/09/13 08:25:48;;;;;;;5.72;3.10;;;;;;;;;;4966511;28;20214;-64
2023/09/13 08:28:15;;;;;;;6.00;3.05;;;;;;;;;;4983386;28;20210;-64
2023/09/13 08:30:42;;;;;;;3.30;3.00;;;;;;;;;;4982828;28;20220;-65
2023/09/13 08:33:11;;;;;;;4.35;3.10;;;;;;;;;;4985341;28;20665;-64
2023/09/13 08:35:38;;;;;;;3.88;3.58;;;;;;;;;;4988656;28;20210;-62
2023/09/13 08:38:07;;;;;;;3.90;3.50;;;;;;;;;;4987297;28;20252;-64
2023/09/13 08:40:34;;;;;;;4.20;3.80;;;;;;;;;;4986274;28;20209;-63
2023/09/13 08:43:02;;;;;;;4.13;3.83;;;;;;;;;;4985643;28;20213;-64
2023/09/13 08:45:30;;;;;;;4.25;3.42;;;;;;;;;;4980512;28;20634;-63
2023/09/13 08:48:01;;;;;;;4.30;3.90;;;;;;;;;;4964343;28;20211;-62
2023/09/13 08:53:03;;;;;;;4.65;3.80;;;;;;;;;;5040149;23;20348;-62
2023/09/13 08:58:01;;;;;;;5.88;3.92;;;;;;;;;;5042171;23;20236;-62
2023/09/13 09:00:30;;;;;;;3.50;3.30;;;;;;;;;;4993090;28;20213;-63
2023/09/13 09:02:57;;;;;;;3.75;3.25;;;;;;;;;;5000981;28;20217;-63
2023/09/13 09:05:25;;;;;;;3.55;3.35;;;;;;;;;;5003688;28;20299;-63
2023/09/13 09:07:53;;;;;;;3.72;3.42;;;;;;;;;;5001619;28;20671;-63
2023/09/13 09:10:20;;;;;;;3.55;3.22;;;;;;;;;;5005550;28;20219;-63
2023/09/13 09:12:49;;;;;;;4.78;3.33;;;;;;;;;;5006278;28;20217;-63
2023/09/13 09:15:18;;;;;;;3.78;3.15;;;;;;;;;;5005339;28;20701;-64
2023/09/13 09:17:48;;;;;;;3.72;3.50;;;;;;;;;;5000710;28;20229;-64
2023/09/13 09:20:15;;;;;;;3.67;3.38;;;;;;;;;;4996874;28;20558;-62
2023/09/13 09:22:43;;;;;;;4.25;3.95;;;;;;;;;;5002975;28;20205;-63
2023/09/13 09:25:11;;;;;;;3.28;3.08;;;;;;;;;;5003284;28;20209;-64
2023/09/13 09:27:38;;;;;;;3.88;3.60;;;;;;;;;;5004685;28;20255;-65
2023/09/13 09:30:07;;;;;;;4.10;3.75;;;;;;;;;;5006670;28;20205;-65
2023/09/13 09:32:36;;;;;;;3.38;3.28;;;;;;;;;;5006658;28;20790;-64
2023/09/13 09:35:05;;;;;;;7.60;3.42;;;;;;;;;;5004490;28;20216;-64
2023/09/13 09:37:33;;;;;;;3.72;3.53;;;;;;;;;;5006562;28;20217;-62
2023/09/13 09:40:00;;;;;;;3.85;3.58;;;;;;;;;;5004614;28;20216;-64
2023/09/13 09:42:29;;;;;;;3.60;3.40;;;;;;;;;;5006854;28;20221;-65
2023/09/13 09:44:56;;;;;;;3.90;3.60;;;;;;;;;;5003101;28;20746;-63
2023/09/13 09:47:23;;;;;;;4.30;3.90;;;;;;;;;;4996488;28;20217;-62
2023/09/13 09:49:51;;;;;;;3.45;3.15;;;;;;;;;;4997012;28;20205;-62
2023/09/13 09:52:20;;;;;;;3.75;3.25;;;;;;;;;;4996141;28;20206;-64
2023/09/13 09:54:48;;;;;;;3.03;2.90;;;;;;;;;;4986565;28;20214;-64
2023/09/13 09:57:21;;;;;;;3.00;2.88;;;;;;;;;;4986653;28;20298;-63
2023/09/13 09:59:48;;;;;;;3.17;2.95;;;;;;;;;;5002123;28;20283;-62
2023/09/13 10:02:15;;;;;;;4.05;3.20;;;;;;;;;;5003082;28;20205;-67
2023/09/13 10:04:46;;;;;;;4.70;4.20;;;;;;;;;;4990136;28;20201;-63
2023/09/13 10:07:14;;;;;;;3.47;3.17;;;;;;;;;;5005094;28;20213;-63
2023/09/13 10:09:42;;;;;;;3.47;3.22;;;;;;;;;;5005562;28;20221;-65
2023/09/13 10:12:09;;;;;;;3.10;3.00;;;;;;;;;;5003650;28;20428;-64
2023/09/13 10:14:37;;;;;;;3.17;2.65;;;;;;;;;;5002075;28;20209;-65
2023/09/13 10:17:04;;;;;;;3.05;2.85;;;;;;;;;;5000877;28;20209;-64
2023/09/13 10:19:32;;;;;;;2.53;2.42;;;;;;;;;;5001558;28;20260;-62
2023/09/13 10:21:59;;;;;;;2.40;2.30;;;;;;;;;;5002500;28;20586;-64
2023/09/13 10:24:30;;;;;;;2.53;2.38;;;;;;;;;;5000066;28;20209;-74
2023/09/13 10:26:59;;;;;;;3.38;3.17;;;;;;;;;;5002110;28;20209;-63
2023/09/13 10:29:31;;;;;;;4.45;3.03;;;;;;;;;;4995356;28;20208;-64
2023/09/13 10:31:59;;;;;;;3.10;2.90;;;;;;;;;;4988043;28;20205;-64
2023/09/13 10:34:28;;;;;;;2.60;2.47;;;;;;;;;;4987343;28;20698;-62
2023/09/13 10:36:59;;;;;;;3.13;2.95;;;;;;;;;;4984073;28;20218;-63
2023/09/13 10:39:28;;;;;;;2.78;2.58;;;;;;;;;;5000120;28;20567;-63
2023/09/13 10:42:05;;;;;;;2.38;1.75;;;;;;;;;;5001367;28;20237;-62
2023/09/13 10:44:33;;;;;;;2.13;2.03;;;;;;;;;;4998832;28;20208;-61
2023/09/13 10:47:00;;;;;;;3.38;2.13;;;;;;;;;;5002683;28;20215;-62
2023/09/13 10:49:27;;;;;;;2.90;2.53;;;;;;;;;;5004872;28;20227;-62
2023/09/13 10:51:55;;;;;;;2.78;2.58;;;;;;;;;;5004591;28;20253;-62
2023/09/13 10:54:22;;;;;;;2.35;2.17;;;;;;;;;;5004302;28;20245;-64
2023/09/13 10:56:50;;;;;;;2.83;2.65;;;;;;;;;;5002957;28;20415;-62
2023/09/13 10:59:19;;;;;;;2.33;2.25;;;;;;;;;;4997939;28;20672;-63
2023/09/13 11:01:46;;;;;;;3.15;2.28;;;;;;;;;;5001015;28;20205;-66
2023/09/13 11:04:14;;;;;;;2.13;2.10;;;;;;;;;;4994230;28;20263;-62
2023/09/13 11:06:42;;;;;;;1.98;1.88;;;;;;;;;;4983493;28;20217;-64
2023/09/13 11:09:12;;;;;;;2.25;2.15;;;;;;;;;;4999634;28;20201;-63
2023/09/13 11:11:39;;;;;;;1.88;1.88;;;;;;;;;;5004290;28;20231;-66
2023/09/13 11:14:09;;;;;;;2.20;1.88;;;;;;;;;;5003168;28;20227;-64
2023/09/13 11:16:42;;;;;;;2.42;2.30;;;;;;;;;;5004843;28;20219;-63
2023/09/13 11:19:11;;;;;;;2.30;2.30;;;;;;;;;;5001865;28;20231;-63
2023/09/13 11:21:47;;;;;;;4.18;1.95;;;;;;;;;;5005032;28;20213;-64
2023/09/13 11:24:14;;;;;;;2.35;2.25;;;;;;;;;;5003445;28;20219;-63
2023/09/13 11:26:45;;;;;;;2.63;2.53;;;;;;;;;;4981670;28;20213;-65
2023/09/13 11:29:22;;;;;;;5.07;2.53;;;;;;;;;;4994602;28;20260;-64
2023/09/13 11:32:03;;;;;;;3.03;2.80;;;;;;;;;;5000255;28;20237;-64
2023/09/13 11:34:31;;;;;;;2.80;2.70;;;;;;;;;;5007007;28;20205;-62
2023/09/13 11:36:59;;;;;;;2.75;2.55;;;;;;;;;;5006731;28;20217;-62
2023/09/13 11:39:27;;;;;;;2.90;2.60;;;;;;;;;;5008077;28;20225;-64
2023/09/13 11:41:58;;;;;;;2.00;2.00;;;;;;;;;;5006960;28;20213;-64
2023/09/13 11:44:25;;;;;;;2.28;2.15;;;;;;;;;;5007828;28;20263;-64
2023/09/13 11:46:53;;;;;;;2.40;2.20;;;;;;;;;;5007902;28;20217;-63
2023/09/13 11:49:22;;;;;;;3.00;1.80;;;;;;;;;;4993951;28;20204;-64
2023/09/13 11:51:52;;;;;;;2.35;2.03;;;;;;;;;;5003745;28;20217;-63
2023/09/13 11:54:19;;;;;;;2.17;2.00;;;;;;;;;;5004530;28;20205;-64
2023/09/13 11:56:46;;;;;;;2.05;1.95;;;;;;;;;;4999108;28;20281;-63
2023/09/13 11:59:13;;;;;;;2.13;2.05;;;;;;;;;;4988649;28;20233;-63
2023/09/13 12:01:43;;;;;;;1.80;1.80;;;;;;;;;;4987084;28;20217;-62
2023/09/13 12:04:10;;;;;;;4.75;1.95;;;;;;;;;;5003469;28;20240;-65
2023/09/13 12:06:45;;;;;;;1.90;1.90;;;;;;;;;;5005593;28;20678;-64
2023/09/13 12:09:13;;;;;;;3.92;1.98;;;;;;;;;;5005823;28;20690;-63
2023/09/13 12:11:40;;;;;;;2.00;1.90;;;;;;;;;;5007731;28;20209;-64
2023/09/13 12:14:09;;;;;;;2.40;2.20;;;;;;;;;;5002735;28;20213;-62
2023/09/13 12:16:37;;;;;;;2.25;2.13;;;;;;;;;;5002037;28;20228;-62
2023/09/13 12:19:04;;;;;;;2.38;2.28;;;;;;;;;;5002890;28;20322;-64
2023/09/13 12:21:31;;;;;;;2.28;2.22;;;;;;;;;;5006246;28;20217;-61
2023/09/13 12:24:00;;;;;;;6.20;2.08;;;;;;;;;;5005897;28;20545;-61
2023/09/13 12:26:27;;;;;;;2.47;2.35;;;;;;;;;;5004639;28;20205;-63
2023/09/13 12:28:54;;;;;;;2.20;2.20;;;;;;;;;;5005762;28;20754;-64
2023/09/13 12:31:22;;;;;;;2.88;2.10;;;;;;;;;;5005941;28;20208;-65
2023/09/13 12:33:51;;;;;;;2.42;2.20;;;;;;;;;;5007146;28;20666;-65
2023/09/13 12:36:18;;;;;;;1.80;1.70;;;;;;;;;;4992981;28;20227;-64
2023/09/13 12:38:46;;;;;;;3.03;2.00;;;;;;;;;;5002548;28;20356;-64
2023/09/13 12:41:15;;;;;;;2.03;2.03;;;;;;;;;;5007366;28;20334;-64
2023/09/13 12:43:43;;;;;;;2.33;2.00;;;;;;;;;;4997817;28;20244;-65
2023/09/13 12:46:11;;;;;;;6.07;2.30;;;;;;;;;;4998023;28;20206;-64
2023/09/13 12:48:38;;;;;;;2.45;2.35;;;;;;;;;;4999014;28;20216;-64
2023/09/13 12:51:06;;;;;;;2.60;2.40;;;;;;;;;;4992992;28;20300;-63
2023/09/13 12:53:33;;;;;;;2.47;2.33;;;;;;;;;;4995518;28;20276;-63
2023/09/13 12:56:00;;;;;;;3.40;2.75;;;;;;;;;;4998063;28;20228;-64
2023/09/13 12:58:29;;;;;;;3.15;2.47;;;;;;;;;;5006718;28;20213;-63
2023/09/13 13:00:57;;;;;;;2.50;2.40;;;;;;;;;;5001379;28;20685;-64
2023/09/13 13:03:28;;;;;;;2.58;2.47;;;;;;;;;;5006989;28;20461;-63
2023/09/13 13:05:56;;;;;;;3.38;2.20;;;;;;;;;;5003772;28;20955;-64
2023/09/13 13:08:33;;;;;;;2.40;2.30;;;;;;;;;;5006813;28;20213;-63
2023/09/13 13:11:02;;;;;;;2.60;2.25;;;;;;;;;;5004085;28;20589;-65
2023/09/13 13:13:38;;;;;;;4.90;2.20;;;;;;;;;;5005818;28;20292;-64
2023/09/13 13:16:14;;;;;;;2.60;2.35;;;;;;;;;;5003024;28;20285;-64
2023/09/13 13:18:46;;;;;;;2.17;2.00;;;;;;;;;;5002738;28;20201;-63
2023/09/13 13:21:14;;;;;;;2.30;2.20;;;;;;;;;;5000740;28;20209;-63
2023/09/13 13:23:42;;;;;;;2.40;2.30;;;;;;;;;;5002475;28;20212;-63
2023/09/13 13:26:09;;;;;;;2.53;2.42;;;;;;;;;;5000081;28;20232;-63
2023/09/13 13:28:38;;;;;;;2.33;2.10;;;;;;;;;;5006688;28;20216;-64
2023/09/13 13:31:05;;;;;;;2.17;1.92;;;;;;;;;;5006416;28;20221;-63
2023/09/13 13:33:32;;;;;;;1.88;1.77;;;;;;;;;;5006809;28;20318;-63
2023/09/13 13:35:59;;;;;;;2.13;1.80;;;;;;;;;;5002496;28;20216;-63
2023/09/13 13:38:26;;;;;;;1.83;1.75;;;;;;;;;;4987020;28;20213;-63
2023/09/13 13:41:03;;;;;;;2.15;1.55;;;;;;;;;;4984968;28;20234;-62
2023/09/13 13:43:30;;;;;;;2.10;2.00;;;;;;;;;;4991587;28;20224;-62
2023/09/13 13:45:59;;;;;;;2.22;2.13;;;;;;;;;;5002818;28;20205;-61
2023/09/13 13:48:26;;;;;;;2.20;2.10;;;;;;;;;;4999367;28;20350;-63
2023/09/13 13:50:53;;;;;;;2.20;2.10;;;;;;;;;;5002381;28;20216;-62
2023/09/13 13:53:20;;;;;;;3.03;2.00;;;;;;;;;;5000388;28;20220;-63
2023/09/13 13:55:48;;;;;;;2.13;1.95;;;;;;;;;;5003258;28;20717;-66
2023/09/13 13:58:15;;;;;;;2.28;2.03;;;;;;;;;;5002167;28;20220;-64
2023/09/13 14:00:42;;;;;;;1.98;1.88;;;;;;;;;;4992931;28;20722;-66
2023/09/13 14:03:11;;;;;;;3.33;1.90;;;;;;;;;;5001878;28;20197;-64
2023/09/13 14:05:40;;;;;;;7.43;2.72;;;;;;;;;;4998221;28;20205;-62
2023/09/13 14:08:07;;;;;;;2.63;2.47;;;;;;;;;;4995334;28;20213;-62
2023/09/13 14:10:39;;;;;;;2.47;2.28;;;;;;;;;;4983303;28;20210;-62
2023/09/13 14:13:06;;;;;;;3.03;2.15;;;;;;;;;;4997374;28;20339;-62
2023/09/13 14:15:33;;;;;;;3.80;2.00;;;;;;;;;;4987994;28;20659;-64
2023/09/13 14:18:00;;;;;;;3.15;2.15;;;;;;;;;;5001427;28;20212;-63
2023/09/13 14:20:29;;;;;;;1.90;1.83;;;;;;;;;;5005660;28;20259;-68
2023/09/13 14:22:56;;;;;;;4.03;2.10;;;;;;;;;;5003546;28;20212;-63
2023/09/13 14:25:23;;;;;;;10.63;6.38;;;;;;;;;;5002218;28;20221;-63
2023/09/13 14:27:50;;;;;;;6.90;5.15;;;;;;;;;;4998168;28;20236;-63
2023/09/13 14:30:18;;;;;;;47.20;32.22;;;;;;;;;;5005950;28;20208;-64
2023/09/13 14:32:45;;;;;;;4.25;3.95;;;;;;;;;;5003282;28;20209;-63
2023/09/13 14:35:13;;;;;;;670.97;505.60;;;;;;;;;;5005409;28;20220;-63
2023/09/13 14:37:41;;;;;;;88.30;47.55;;;;;;;;;;5005300;28;20255;-63
2023/09/13 14:40:09;;;;;;;527.58;327.55;;;;;;;;;;5003150;28;20264;-63
2023/09/13 14:42:36;;;;;;;367.05;173.32;;;;;;;;;;5003729;28;20266;-67
2023/09/13 14:45:04;;;;;;;15.52;9.95;;;;;;;;;;5001593;28;20528;-63
2023/09/13 14:47:31;;;;;;;573.70;376.15;;;;;;;;;;4999820;28;20213;-63
2023/09/13 14:49:58;;;;;;;264.23;142.38;;;;;;;;;;4998767;28;20208;-62
2023/09/13 14:52:25;;;;;;;98.28;54.95;;;;;;;;;;5001243;28;20217;-63